Terminal Aerodrome Forecast
Issued by NWS

Home | Current Version | Previous Version | Text Only | Print | Product List | Glossary On
Versions: 1 2 3 4 5 6 7 8 9 10 11 12 13 14 15 16 17 18 19 20 21 22 23 24
000
FTUS43 KDVN 271303 AAA
TAFBRL
TAF AMD
KBRL 271303Z 2713/2812 16010KT P6SM VCSH BKN014 BKN050
     FM271800 16009KT P6SM VCTS SCT035CB BKN060
     FM280000 15007KT 6SM -RA BR VCTS BKN035CB
     FM280300 16007KT 4SM -RA BR VCTS OVC035CB=

USA.gov is the U.S. government's official web portal to all federal, state and local government web resources and services.